メインページ
METAR-TAF:

METAR-TAF

空港 :

キスム国際空港

キスム, ケニヤ

緯度: 00-06S, 経度: 034-45E, 海抜: 1157m

現時点の気象観測

当レポートは33分前の03:00(UTC)に作成
の風 3kt
気温 17°C
湿度 88%
気圧 1019 hPa
視程10km以上
1,500メートル以下は雲なし、積乱雲なし

METAR: HKKI 210300Z 36003KT CAVOK 17/15 Q1019

時間: 06:33 (03:33 UTC)

予報

当レポートは4時間33分前の23:00(UTC)に作成
予報は21日の 00時(UTC)から 21日の 24時(UTC)まで有効
変向風 5kt
視程10km以上
高度2100ftの雲はほとんどない
高度8000ftの雲は散在している
21日の 08時(UTC)から 21日の 11時(UTC)まで徐々に
南西の風 10kt
高度2500ftの雲はほとんどない
高度9000ftの雲は散在している
21日の 12時(UTC)から 21日の 18時(UTC)まで一時的に
西の風 5kt
高度2700ftの雲はほとんどない, 積乱雲.
高度9000ftの雲は散在している
21日の 20時(UTC)から 21日の 23時(UTC)まで徐々に
の風 kt
高度2100ftの雲はほとんどない

TAF: HKKI 202300Z 2100/2124 VRB05KT 9999 FEW021 SCT080 BECMG 2108/2111 22010KT FEW025 SCT090 TEMPO 2112/2118 26005KT FEW027CB SCT090 BECMG 2120/2123 00000KT FEW021

4,000以上の空港の気象観測と天気予報(METAR報とTAF報)

利用可能な観測所は地図上に黄色い丸と赤い丸で示す。

丸の上にカーソルを重ねると観測所名を参照できる。

次にクリックすると気象観測と天気予報を参照できる。

マップの切り替え:黒色「×」印の緑ボタンをクリックして拡大、「-」印の緑ボタンをクリックして縮小、緑色の三角印をクリックして隣りの地図に切り替え


METAR-TAF: